ADDS METAR Data INFO
IDs: Format: Raw Decoded Include TAF

Data at: 0730 UTC 18 Oct 2017

KEXX 180700Z AUTO 00000KT 10SM CLR 04/04 A3033 RMK AO2 T00360036
KEXX 180640Z AUTO 00000KT 10SM CLR 04/04 A3034 RMK AO2 T00400040
KEXX 180620Z AUTO 00000KT 10SM CLR 04/04 A3033 RMK AO2 T00430043
KEXX 180600Z AUTO 00000KT 10SM CLR 05/05 A3033 RMK AO2 T00450045
KEXX 180540Z AUTO 00000KT 10SM CLR 05/05 A3033 RMK AO2 T00470047
KEXX 180520Z AUTO 00000KT 10SM CLR 05/05 A3033 RMK AO2 T00500050
KEXX 180500Z AUTO 00000KT 10SM CLR 05/05 A3033 RMK AO2 T00480048
KEXX 180440Z AUTO 00000KT 10SM CLR 05/05 A3033 RMK AO2 T00520052
KEXX 180420Z AUTO 00000KT 10SM CLR 05/05 A3033 RMK AO2 T00540054
KEXX 180400Z AUTO 00000KT 10SM CLR 06/06 A3033 RMK AO2 T00560056
KEXX 180340Z AUTO 00000KT 10SM CLR 06/06 A3033 RMK AO2 T00600060
KEXX 180320Z AUTO 00000KT 10SM CLR 06/06 A3033 RMK AO2 T00590058
KEXX 180300Z AUTO 00000KT 10SM CLR 07/07 A3033 RMK AO2 T00660066
KEXX 180240Z AUTO 00000KT 10SM CLR 07/07 A3033 RMK AO2 T00650065
KEXX 180220Z AUTO 00000KT 10SM CLR 07/07 A3034 RMK AO2 T00660065
KEXX 180200Z AUTO 00000KT 10SM CLR 07/07 A3033 RMK AO2 T00690066
KEXX 180140Z AUTO 00000KT 10SM CLR 07/07 A3033 RMK AO2 T00720066
KEXX 180120Z AUTO 00000KT 10SM CLR 07/07 A3032 RMK AO2 T00740068
KEXX 180100Z AUTO 00000KT 10SM CLR 08/07 A3032 RMK AO2 T00790067
KEXX 180040Z AUTO 00000KT 10SM CLR 08/07 A3032 RMK AO2 T00820066
KEXX 180020Z AUTO 00000KT 10SM CLR 09/07 A3031 RMK AO2 T00860068
KEXX 180000Z AUTO 00000KT 10SM CLR 09/07 A3031 RMK AO2 T00900066
KEXX 172340Z AUTO 00000KT 10SM CLR 10/07 A3031 RMK AO2 T00960065
KEXX 172320Z AUTO 00000KT 7SM CLR 11/06 A3030 RMK AO2 T01080063
KEXX 172300Z AUTO 00000KT 10SM CLR 12/06 A3029 RMK AO2 T01150056
KEXX 172240Z AUTO 00000KT 10SM CLR 13/06 A3029 RMK AO2 T01250057
KEXX 172220Z AUTO 00000KT 10SM CLR 13/06 A3028 RMK AO2 T01290061
KEXX 172200Z AUTO 00000KT 10SM CLR 15/06 A3028 RMK AO2 T01500058
KEXX 172140Z AUTO 00000KT 10SM CLR 16/05 A3028 RMK AO2 T01620053
KEXX 172120Z AUTO 00000KT 10SM CLR 17/05 A3028 RMK AO2 T01710046
KEXX 172100Z AUTO 00000KT 10SM CLR 17/04 A3028 RMK AO2 T01720042
KEXX 172040Z AUTO 07004KT 10SM CLR 17/04 A3028 RMK AO2 T01740041
KEXX 172020Z AUTO 00000KT 10SM CLR 17/04 A3028 RMK AO2 T01710036
KEXX 172000Z AUTO 05003KT 10SM CLR 18/04 A3029 RMK AO2 T01790044
KEXX 171940Z AUTO 00000KT 10SM CLR 18/04 A3029 RMK AO2 T01790043
KEXX 171920Z AUTO 00000KT 10SM CLR 18/04 A3030 RMK AO2 T01760039
KEXX 171900Z AUTO 00000KT 10SM CLR 17/04 A3030 RMK AO2 T01720036
KEXX 171840Z AUTO 02004KT 10SM CLR 17/04 A3031 RMK AO2 T01730037
KEXX 171820Z AUTO 08005KT 10SM CLR 17/03 A3032 RMK AO2 T01700033
KEXX 171800Z AUTO 34005KT 10SM CLR 17/04 A3033 RMK AO2 T01670037
KEXX 171740Z AUTO 02005KT 10SM CLR 16/03 A3033 RMK AO2 T01620034
KEXX 171720Z AUTO 32003KT 10SM CLR 16/04 A3034 RMK AO2 T01620037
KEXX 171700Z AUTO 04005KT 10SM CLR 16/04 A3035 RMK AO2 T01620041
KEXX 171640Z AUTO 10006KT 10SM CLR 16/04 A3036 RMK AO2 T01640044
KEXX 171620Z AUTO 06005KT 10SM CLR 16/04 A3036 RMK AO2 T01550035
KEXX 171600Z AUTO 03005KT 10SM CLR 15/04 A3037 RMK AO2 T01520039
KEXX 171540Z AUTO 08005KT 10SM CLR 15/04 A3038 RMK AO2 T01500044
KEXX 171520Z AUTO 07006KT 10SM CLR 15/05 A3037 RMK AO2 T01500049
KEXX 171500Z AUTO 05006KT 10SM CLR 14/05 A3038 RMK AO2 T01440052
KEXX 171440Z AUTO 06005KT 10SM CLR 14/05 A3038 RMK AO2 T01360053
KEXX 171420Z AUTO 06006KT 10SM CLR 13/05 A3037 RMK AO2 T01320053
KEXX 171400Z AUTO 06004KT 10SM CLR 12/06 A3037 RMK AO2 T01220057
KEXX 171340Z AUTO 36003KT 10SM CLR 11/06 A3037 RMK AO2 T01100058
KEXX 171320Z AUTO 36004KT 10SM CLR 10/06 A3037 RMK AO2 T00970055
KEXX 171300Z AUTO 35004KT 10SM CLR 09/05 A3036 RMK AO2 T00850050
KEXX 171240Z AUTO 00000KT 10SM CLR 08/05 A3036 RMK AO2 T00760054
KEXX 171220Z AUTO 00000KT 10SM CLR 07/05 A3035 RMK AO2 T00650052
KEXX 171200Z AUTO 00000KT 10SM CLR 05/05 A3034 RMK AO2 T00500046
KEXX 171140Z AUTO 00000KT 10SM CLR 05/04 A3033 RMK AO2 T00450043
KEXX 171120Z AUTO 00000KT 10SM CLR 05/05 A3033 RMK AO2 T00480045
KEXX 171100Z AUTO 00000KT 10SM CLR 05/04 A3032 RMK AO2 T00480044
KEXX 171040Z AUTO 00000KT 10SM CLR 05/05 A3032 RMK AO2 T00490046
KEXX 171020Z AUTO 00000KT 10SM CLR 05/05 A3031 RMK AO2 T00520047
KEXX 171000Z AUTO 00000KT 10SM CLR 05/05 A3030 RMK AO2 T00480046
KEXX 170940Z AUTO 00000KT 10SM CLR 05/04 A3029 RMK AO2 T00450044
KEXX 170920Z AUTO 00000KT 10SM CLR 05/04 A3029 RMK AO2 T00490042
KEXX 170900Z AUTO 00000KT 10SM CLR 06/05 A3028 RMK AO2 T00580050
KEXX 170840Z AUTO 00000KT 10SM CLR 06/05 A3027 RMK AO2 T00600049
KEXX 170820Z AUTO 00000KT 10SM CLR 05/04 A3027 RMK AO2 T00510044
KEXX 170800Z AUTO 00000KT 10SM CLR 06/05 A3027 RMK AO2 T00620053
KEXX 170740Z AUTO 00000KT 10SM CLR 06/05 A3027 RMK AO2 T00600052
KEXX 170720Z AUTO 00000KT 10SM CLR 06/05 A3027 RMK AO2 T00610051
KEXX 170700Z AUTO 00000KT 10SM CLR 05/05 A3027 RMK AO2 T00510049
KEXX 170640Z AUTO 00000KT 10SM CLR 05/05 A3027 RMK AO2 T00540049
KEXX 170620Z AUTO 00000KT 10SM CLR 07/06 A3027 RMK AO2 T00670055
KEXX 170600Z AUTO 00000KT 10SM CLR 06/05 A3027 RMK AO2 T00620053
KEXX 170540Z AUTO 00000KT 10SM CLR 06/05 A3026 RMK AO2 T00630053
KEXX 170520Z AUTO 00000KT 10SM CLR 07/05 A3026 RMK AO2 T00730053
KEXX 170500Z AUTO 00000KT 10SM CLR 08/05 A3026 RMK AO2 T00750053
KEXX 170440Z AUTO 00000KT 10SM CLR 09/05 A3026 RMK AO2 T00850050
KEXX 170420Z AUTO 00000KT 10SM CLR 10/05 A3026 RMK AO2 T00950047
KEXX 170400Z AUTO 00000KT 10SM CLR 10/05 A3026 RMK AO2 T01000046
KEXX 170340Z AUTO 00000KT 10SM CLR 10/05 A3026 RMK AO2 T01000049
KEXX 170320Z AUTO 00000KT 10SM CLR 10/05 A3026 RMK AO2 T01010051
KEXX 170300Z AUTO 00000KT 10SM CLR 10/05 A3026 RMK AO2 T01040050
KEXX 170240Z AUTO 00000KT 10SM CLR 10/05 A3025 RMK AO2 T01040050
KEXX 170220Z AUTO 00000KT 10SM CLR 11/05 A3025 RMK AO2 T01110050
KEXX 170200Z AUTO 00000KT 10SM CLR 11/05 A3025 RMK AO2 T01120052
KEXX 170140Z AUTO 00000KT 10SM CLR 12/05 A3023 RMK AO2 T01150050
KEXX 170120Z AUTO 00000KT 10SM CLR 12/05 A3023 RMK AO2 T01160052
KEXX 170100Z AUTO 00000KT 10SM CLR 12/05 A3021 RMK AO2 T01150053
KEXX 170040Z AUTO 00000KT 10SM CLR 12/06 A3021 RMK AO2 T01150055
KEXX 170020Z AUTO 00000KT 10SM CLR 12/06 A3020 RMK AO2 T01210055
KEXX 170000Z AUTO 00000KT 10SM CLR 12/06 A3019 RMK AO2 T01220057
KEXX 162340Z AUTO 00000KT 10SM CLR 12/06 A3019 RMK AO2 T01240059
KEXX 162320Z AUTO 00000KT 10SM CLR 14/05 A3018 RMK AO2 T01350053
KEXX 162300Z AUTO 36003KT 10SM CLR 15/05 A3017 RMK AO2 T01450050
KEXX 162240Z AUTO 36003KT 10SM CLR 15/05 A3016 RMK AO2 T01510052
KEXX 162220Z AUTO 34003KT 10SM CLR 16/05 A3015 RMK AO2 T01580052
KEXX 162200Z AUTO 35004KT 10SM CLR 17/06 A3013 RMK AO2 T01650055
KEXX 162140Z AUTO 35005KT 10SM CLR 17/06 A3013 RMK AO2 T01710057
KEXX 162120Z AUTO 32006KT 10SM CLR 18/06 A3012 RMK AO2 T01750057
KEXX 162100Z AUTO 36003KT 10SM CLR 18/06 A3011 RMK AO2 T01750059
KEXX 162040Z AUTO 01004KT 10SM CLR 18/07 A3011 RMK AO2 T01750066
KEXX 162020Z AUTO 35004KT 10SM CLR 18/07 A3011 RMK AO2 T01820071
KEXX 162000Z AUTO 35005KT 10SM CLR 18/07 A3011 RMK AO2 T01810066
KEXX 161940Z AUTO 36003KT 10SM CLR 18/08 A3011 RMK AO2 T01780080